TimeMST,TemperatureF,Dew PointF,Humidity,Sea Level PressureIn,VisibilityMPH,Wind Direction,Wind SpeedMPH,Gust SpeedMPH,PrecipitationIn,Events,Conditions,WindDirDegrees,DateUTC
12:53 AM,5.0,-2.9,70,30.39,10.0,West,10.4,-,N/A,,Clear,260,2013-01-21 07:53:00
1:53 AM,3.0,-4.0,73,30.38,10.0,West,8.1,-,N/A,,Clear,270,2013-01-21 08:53:00
2:53 AM,1.9,-5.1,72,30.39,10.0,West,10.4,-,N/A,,Clear,270,2013-01-21 09:53:00
3:53 AM,3.0,-4.0,73,30.38,10.0,West,10.4,-,N/A,,Clear,280,2013-01-21 10:53:00
4:53 AM,-0.0,-6.0,76,30.47,10.0,West,9.2,-,N/A,,Clear,270,2013-01-21 11:53:00
5:53 AM,1.0,-5.1,75,30.56,10.0,West,9.2,-,N/A,,Clear,270,2013-01-21 12:53:00
6:53 AM,-0.0,-6.0,76,30.55,10.0,West,12.7,-,N/A,,Clear,270,2013-01-21 13:53:00
7:53 AM,-0.0,-7.1,72,30.52,10.0,West,12.7,-,N/A,,Clear,280,2013-01-21 14:53:00
8:53 AM,9.0,-2.0,61,30.54,10.0,West,10.4,-,N/A,,Clear,270,2013-01-21 15:53:00
9:53 AM,16.0,1.9,54,30.54,10.0,WNW,5.8,-,N/A,,Clear,300,2013-01-21 16:53:00
10:53 AM,27.0,6.1,41,30.50,10.0,NNW,4.6,-,N/A,,Clear,330,2013-01-21 17:53:00
11:53 AM,32.0,3.9,31,30.46,10.0,NNE,4.6,-,N/A,,Clear,30,2013-01-21 18:53:00
12:53 PM,32.0,6.1,34,30.42,10.0,Calm,Calm,-,N/A,,Clear,0,2013-01-21 19:53:00
1:53 PM,37.0,8.1,30,30.38,10.0,Calm,Calm,-,N/A,,Clear,0,2013-01-21 20:53:00
2:53 PM,39.9,5.0,23,30.37,10.0,Calm,Calm,-,N/A,,Clear,0,2013-01-21 21:53:00
3:53 PM,39.9,8.1,27,30.35,10.0,Calm,Calm,-,N/A,,Clear,0,2013-01-21 22:53:00
4:53 PM,30.9,12.9,47,30.42,10.0,Calm,Calm,-,N/A,,Clear,0,2013-01-21 23:53:00
5:53 PM,19.9,9.0,62,30.47,10.0,SW,4.6,-,N/A,,Clear,220,2013-01-22 00:53:00
6:53 PM,12.0,5.0,73,30.55,10.0,West,4.6,-,N/A,,Clear,260,2013-01-22 01:53:00
7:53 PM,12.9,5.0,71,30.54,10.0,West,5.8,-,N/A,,Clear,260,2013-01-22 02:53:00
8:53 PM,16.0,6.1,65,30.48,10.0,West,13.8,-,N/A,,Clear,270,2013-01-22 03:53:00
9:53 PM,16.0,6.1,65,30.45,10.0,West,12.7,-,N/A,,Clear,270,2013-01-22 04:53:00
10:53 PM,12.9,5.0,71,30.41,10.0,West,11.5,-,N/A,,Clear,270,2013-01-22 05:53:00
11:53 PM,10.9,3.9,73,30.38,10.0,West,11.5,-,N/A,,Clear,270,2013-01-22 06:53:00